Time;durP1;ratioP1;P1;durP2;ratioP2;P2;SDS_P1;SDS_P2;PMS_P1;PMS_P2;Temp;Humidity;BMP_temperature;BMP_pressure;BME280_temperature;BME280_humidity;BME280_pressure;Samples;Min_cycle;Max_cycle;Signal;HPM_P1;HPM_P2
2022/06/01 00:00:08;;;;;;;10.85;5.80;;;;;;;-149.78;100.00;50275.88;5114596;27;20367;-73
2022/06/01 00:02:38;;;;;;;10.43;6.72;;;;;;;-149.78;100.00;50271.97;5135572;27;20035;-73
2022/06/01 00:05:42;;;;;;;12.43;6.85;;;;;;;-149.78;100.00;50291.50;5128918;27;20039;-73
2022/06/01 00:08:30;;;;;;;12.02;7.03;;;;;;;-149.78;100.00;50260.22;5111329;27;20107;-73
2022/06/01 00:11:24;;;;;;;11.93;6.93;;;;;;;-149.78;100.00;50279.78;5117446;27;20039;-72
2022/06/01 00:14:02;;;;;;;11.02;6.68;;;;;;;-149.78;100.00;50217.19;5097791;28;20073;-73
2022/06/01 00:16:39;;;;;;;15.95;7.13;;;;;;;-149.78;100.00;50268.03;5133624;27;20035;-73
2022/06/01 00:19:07;;;;;;;9.88;5.75;;;;;;;-149.78;100.00;50244.59;5090318;28;20038;-73
2022/06/01 00:24:46;;;;;;;9.98;6.10;;;;;;;-149.78;100.00;50258.28;5110176;27;20436;-73
2022/06/01 00:27:32;;;;;;;10.07;6.63;;;;;;;-149.78;100.00;50266.09;5112960;27;20039;-73
2022/06/01 00:30:20;;;;;;;10.48;7.40;;;;;;;-149.78;100.00;50311.06;5122826;27;20045;-73
2022/06/01 00:33:11;;;;;;;13.25;7.60;;;;;;;-149.78;100.00;50268.03;5121938;27;20164;-73
2022/06/01 00:36:00;;;;;;;11.82;7.55;;;;;;;-149.78;100.00;50311.06;5083482;28;20048;-73
2022/06/01 00:38:44;;;;;;;12.50;7.82;;;;;;;-149.78;100.00;50275.88;5093276;28;20110;-72
2022/06/01 00:41:09;;;;;;;16.00;8.57;;;;;;;-149.78;100.00;50279.78;5104111;27;20133;-73
2022/06/01 00:43:56;;;;;;;18.17;10.02;;;;;;;-149.78;100.00;50291.50;5129145;27;20372;-73
2022/06/01 00:46:22;;;;;;;16.10;9.95;;;;;;;-149.78;100.00;50260.22;5125577;27;20032;-74
2022/06/01 00:49:21;;;;;;;25.60;11.60;;;;;;;-149.78;100.00;50275.88;5094211;27;20043;-72
2022/06/01 00:51:51;;;;;;;20.98;11.23;;;;;;;-149.78;100.00;50271.97;5124426;27;20394;-72
2022/06/01 00:54:17;;;;;;;16.98;10.55;;;;;;;-149.78;100.00;50299.34;5115276;27;20039;-73
2022/06/01 00:57:14;;;;;;;19.35;10.75;;;;;;;-149.78;100.00;50268.03;5106230;27;20134;-73
2022/06/01 01:00:01;;;;;;;19.08;10.85;;;;;;;-149.78;100.00;50268.03;5111879;27;20133;-73
2022/06/01 01:02:33;;;;;;;18.67;9.95;;;;;;;-149.78;100.00;50260.22;5121432;27;20062;-73
2022/06/01 01:05:20;;;;;;;22.75;10.23;;;;;;;-149.78;100.00;50260.22;5121893;27;20043;-72
2022/06/01 01:07:47;;;;;;;17.83;9.65;;;;;;;-149.78;100.00;50264.13;5107986;27;20034;-72
2022/06/01 01:10:15;;;;;;;17.15;9.40;;;;;;;-149.78;100.00;50254.34;5115710;27;21294;-72
2022/06/01 01:12:58;;;;;;;16.48;9.15;;;;;;;-149.78;100.00;50246.53;5083495;28;20040;-73
2022/06/01 01:15:55;;;;;;;15.73;8.80;;;;;;;-149.78;100.00;50295.44;5126011;27;20041;-73
2022/06/01 01:18:44;;;;;;;17.17;9.32;;;;;;;-149.78;100.00;50275.88;5080921;28;20051;-73
2022/06/01 01:21:36;;;;;;;17.30;9.48;;;;;;;-149.78;100.00;50279.78;5069429;28;20039;-72
2022/06/01 01:24:22;;;;;;;13.55;8.88;;;;;;;-149.78;100.00;50248.50;5073942;28;20036;-72
2022/06/01 01:26:51;;;;;;;15.10;9.27;;;;;;;-149.78;100.00;50240.66;5084818;28;20058;-72
2022/06/01 01:29:35;;;;;;;17.55;8.65;;;;;;;-149.78;100.00;50260.22;5087183;28;20072;-73
2022/06/01 01:32:01;;;;;;;17.27;8.60;;;;;;;-149.78;100.00;50264.13;5050086;28;20040;-73
2022/06/01 01:34:41;;;;;;;14.80;8.52;;;;;;;-149.78;100.00;50295.44;5055787;28;20182;-74
2022/06/01 01:37:28;;;;;;;17.92;8.65;;;;;;;-149.78;100.00;50279.78;5080572;28;20051;-74
2022/06/01 01:40:04;;;;;;;17.33;8.82;;;;;;;-149.78;100.00;50264.13;5068851;28;20032;-72
2022/06/01 01:43:01;;;;;;;17.48;7.65;;;;;;;-149.78;100.00;50252.41;5085540;28;20044;-73
2022/06/01 01:45:55;;;;;;;13.90;7.47;;;;;;;-149.78;100.00;50240.66;5071525;28;20115;-73
2022/06/01 01:48:21;;;;;;;11.38;7.30;;;;;;;-149.78;100.00;50295.44;5087872;28;20040;-73
2022/06/01 01:51:09;;;;;;;12.55;6.80;;;;;;;-149.78;100.00;50283.69;5098891;28;20041;-74
2022/06/01 01:53:39;;;;;;;17.85;7.40;;;;;;;-149.78;100.00;50279.78;5115214;28;20040;-73
2022/06/01 01:57:01;;;;;;;9.77;6.60;;;;;;;-149.78;100.00;50225.03;5119513;28;20054;-74
2022/06/01 01:59:39;;;;;;;12.32;6.80;;;;;;;-149.78;100.00;50295.44;5082205;28;20054;-73
2022/06/01 02:02:23;;;;;;;11.43;5.80;;;;;;;-149.78;100.00;50279.78;5122027;28;20038;-73
2022/06/01 02:07:58;;;;;;;7.22;4.57;;;;;;;-149.78;100.00;50295.44;5112712;28;20040;-73
2022/06/01 02:13:37;;;;;;;7.60;4.80;;;;;;;-149.78;100.00;50266.09;5126111;28;20406;-73
2022/06/01 02:16:27;;;;;;;7.80;4.97;;;;;;;-149.78;100.00;50279.78;5119194;27;20043;-73
2022/06/01 02:19:29;;;;;;;7.45;4.40;;;;;;;-149.78;100.00;50260.22;5107275;28;20043;-73
2022/06/01 02:22:14;;;;;;;6.40;4.05;;;;;;;-149.78;100.00;50260.22;5124361;28;20521;-72
2022/06/01 02:24:42;;;;;;;7.20;4.80;;;;;;;-149.78;100.00;50236.75;5131288;28;20035;-72
2022/06/01 02:27:26;;;;;;;8.38;4.63;;;;;;;-149.78;100.00;50275.88;5110117;28;20163;-72
2022/06/01 02:30:33;;;;;;;6.43;4.22;;;;;;;-149.78;100.00;50275.88;5131154;27;20044;-72
2022/06/01 02:33:02;;;;;;;10.93;4.60;;;;;;;-149.78;100.00;50295.44;5119396;28;20058;-72
2022/06/01 02:35:44;;;;;;;7.82;4.35;;;;;;;-149.78;100.00;50258.28;5130077;28;20059;-72
2022/06/01 02:38:16;;;;;;;6.90;4.40;;;;;;;-149.78;100.00;50271.97;5131341;28;20483;-72
2022/06/01 02:41:02;;;;;;;6.25;4.20;;;;;;;-149.78;100.00;50260.22;5117259;27;20061;-72
2022/06/01 02:43:50;;;;;;;7.97;4.13;;;;;;;-149.78;100.00;50303.25;5112681;27;20043;-72
2022/06/01 02:46:17;;;;;;;7.65;3.60;;;;;;;-149.78;100.00;50266.09;5126609;27;20039;-72
2022/06/01 02:49:04;;;;;;;9.57;4.20;;;;;;;-149.78;100.00;50295.44;5114124;27;20039;-72
2022/06/01 02:51:49;;;;;;;6.72;3.95;;;;;;;-149.78;100.00;50295.44;5100710;27;20039;-72
2022/06/01 02:54:15;;;;;;;5.43;3.85;;;;;;;-149.78;100.00;50303.25;5126627;27;20036;-72
2022/06/01 02:57:01;;;;;;;6.32;3.53;;;;;;;-149.78;100.00;50287.59;5100441;27;20071;-71
2022/06/01 02:59:27;;;;;;;7.38;3.53;;;;;;;-149.78;100.00;50252.41;5115138;27;20066;-72
2022/06/01 03:02:13;;;;;;;6.20;3.22;;;;;;;-149.78;100.00;50291.50;5119309;27;20055;-72
2022/06/01 03:05:02;;;;;;;7.15;3.60;;;;;;;-149.78;100.00;50334.53;5120748;27;20054;-72
2022/06/01 03:07:53;;;;;;;5.38;3.45;;;;;;;-149.78;100.00;50240.66;5102358;27;20061;-72
2022/06/01 03:10:48;;;;;;;4.63;3.55;;;;;;;-149.78;100.00;50268.03;5120420;27;20118;-72
2022/06/01 03:13:33;;;;;;;6.38;3.22;;;;;;;-149.78;100.00;50307.16;5101295;28;20048;-72
2022/06/01 03:16:10;;;;;;;4.97;3.15;;;;;;;-149.78;100.00;50295.44;5115575;28;20063;-72
2022/06/01 03:18:41;;;;;;;4.78;3.30;;;;;;;-149.78;100.00;50289.56;5121886;27;20030;-71
2022/06/01 03:21:22;;;;;;;5.60;3.65;;;;;;;-149.78;100.00;50322.81;5094521;27;20348;-71
2022/06/01 03:23:56;;;;;;;8.18;3.33;;;;;;;-149.78;100.00;50303.25;5132858;27;20050;-72
2022/06/01 03:26:23;;;;;;;7.43;3.47;;;;;;;-149.78;100.00;50311.06;5121536;27;20574;-72
2022/06/01 03:29:07;;;;;;;7.03;3.70;;;;;;;-149.78;100.00;50271.97;5103414;27;20031;-72
2022/06/01 03:31:38;;;;;;;5.38;3.50;;;;;;;-149.78;100.00;50275.88;5123301;27;20046;-71
2022/06/01 03:34:10;;;;;;;;;;;;;;;-149.78;100.00;50299.34;5109832;27;20027;-72
2022/06/01 03:36:58;;;;;;;9.80;3.67;;;;;;;-149.78;100.00;50303.25;5126500;27;19938;-72
2022/06/01 03:39:45;;;;;;;9.27;3.85;;;;;;;-149.78;100.00;50291.50;5124312;27;20044;-71
2022/06/01 03:42:12;;;;;;;7.28;4.80;;;;;;;-149.78;100.00;50271.97;5124546;27;20027;-72
2022/06/01 03:47:50;;;;;;;9.20;4.53;;;;;;;-149.78;100.00;50326.72;5118642;27;20039;-72
2022/06/01 03:50:51;;;;;;;6.10;4.35;;;;;;;-149.78;100.00;50324.75;5118191;27;20050;-71
2022/06/01 03:53:19;;;;;;;11.68;5.88;;;;;;;-149.78;100.00;50361.91;5120722;27;20035;-71
2022/06/01 03:55:46;;;;;;;7.18;4.07;;;;;;;-149.78;100.00;50318.91;5119488;27;20475;-72
2022/06/01 03:58:16;;;;;;;7.07;3.88;;;;;;;-149.78;100.00;50314.97;5094501;28;20035;-71
2022/06/01 04:00:45;;;;;;;8.98;4.18;;;;;;;-149.78;100.00;50299.34;5114558;27;20106;-72
2022/06/01 04:03:17;;;;;;;9.15;4.35;;;;;;;-149.78;100.00;50295.44;5128863;27;20436;-72
2022/06/01 04:06:04;;;;;;;6.40;4.20;;;;;;;-149.78;100.00;50295.44;5110488;27;20031;-72
2022/06/01 04:08:38;;;;;;;6.45;4.20;;;;;;;-149.78;100.00;50256.31;5109296;27;20070;-72
2022/06/01 04:11:07;;;;;;;6.40;3.95;;;;;;;-149.78;100.00;50295.44;5088982;27;20483;-71
2022/06/01 04:13:33;;;;;;;9.60;4.57;;;;;;;-149.78;100.00;50330.63;5130544;27;20051;-71
2022/06/01 04:16:00;;;;;;;10.40;4.28;;;;;;;-149.78;100.00;50322.81;5117232;27;20478;-71
2022/06/01 04:18:48;;;;;;;8.20;4.63;;;;;;;-149.78;100.00;50334.53;5096357;27;20031;-71
2022/06/01 04:21:23;;;;;;;9.80;5.03;;;;;;;-149.78;100.00;50342.38;5097518;28;20028;-71
2022/06/01 04:23:51;;;;;;;8.30;4.57;;;;;;;-149.78;100.00;50330.63;5115737;27;20532;-72
2022/06/01 04:26:22;;;;;;;7.03;4.78;;;;;;;-149.78;100.00;50287.59;5116292;27;20032;-72
2022/06/01 04:28:48;;;;;;;8.00;4.63;;;;;;;-149.78;100.00;50307.16;5117562;27;20360;-72
2022/06/01 04:31:22;;;;;;;12.20;4.95;;;;;;;-149.78;100.00;50287.59;5122330;27;20065;-72
2022/06/01 04:33:48;;;;;;;8.20;4.72;;;;;;;-149.78;100.00;50268.03;5108158;27;20038;-72
2022/06/01 04:36:14;;;;;;;9.15;4.78;;;;;;;-149.78;100.00;50275.88;5086417;27;20039;-71
2022/06/01 04:39:00;;;;;;;12.35;5.22;;;;;;;-149.78;100.00;50334.53;5101265;28;20058;-73
2022/06/01 04:41:39;;;;;;;8.73;4.70;;;;;;;-149.78;100.00;50303.25;5122329;27;20150;-71
2022/06/01 04:44:04;;;;;;;8.45;5.03;;;;;;;-149.78;100.00;50301.28;5122876;27;20052;-72
2022/06/01 04:46:52;;;;;;;10.32;5.22;;;;;;;-149.78;100.00;50297.38;5107930;27;20384;-71
2022/06/01 04:49:26;;;;;;;9.18;4.90;;;;;;;-149.78;100.00;50268.03;5103615;27;20122;-71
2022/06/01 04:51:58;;;;;;;;;;;;;;;-149.78;100.00;50311.06;5111244;28;20035;-72
2022/06/01 04:54:45;;;;;;;6.05;4.40;;;;;;;-149.78;100.00;50307.16;5128527;27;19931;-72
2022/06/01 04:57:10;;;;;;;6.47;4.45;;;;;;;-149.78;100.00;50279.78;5103921;28;20043;-72
2022/06/01 04:59:58;;;;;;;8.63;4.70;;;;;;;-149.78;100.00;50340.41;5109620;28;20047;-71
2022/06/01 05:02:25;;;;;;;7.57;4.95;;;;;;;-149.78;100.00;50314.97;5107172;28;20034;-72
2022/06/01 05:04:55;;;;;;;7.43;4.43;;;;;;;-149.78;100.00;50311.06;5123347;27;20032;-72
2022/06/01 05:07:41;;;;;;;9.98;4.40;;;;;;;-149.78;100.00;50305.22;5113266;27;20039;-72
2022/06/01 05:10:08;;;;;;;9.65;5.07;;;;;;;-149.78;100.00;50299.34;5102947;28;20067;-71
2022/06/01 05:12:34;;;;;;;7.82;4.82;;;;;;;-149.78;100.00;50318.91;5117676;27;20802;-71
2022/06/01 05:15:02;;;;;;;8.88;4.65;;;;;;;-149.78;100.00;50322.81;5126451;27;20023;-71
2022/06/01 05:17:30;;;;;;;7.88;4.18;;;;;;;-149.78;100.00;50295.44;5117527;27;20031;-72
2022/06/01 05:19:56;;;;;;;8.70;4.18;;;;;;;-149.78;100.00;50291.50;5100738;27;20035;-72
2022/06/01 05:22:22;;;;;;;9.73;4.65;;;;;;;-149.78;100.00;50303.25;5103111;28;20051;-71
2022/06/01 05:24:49;;;;;;;6.05;4.18;;;;;;;-149.78;100.00;50297.38;5104134;27;20031;-71
2022/06/01 05:27:14;;;;;;;7.35;4.53;;;;;;;-149.78;100.00;50283.69;5108558;28;20037;-72
2022/06/01 05:29:40;;;;;;;9.35;4.60;;;;;;;-149.78;100.00;50320.84;5114804;27;20050;-71
2022/06/01 05:32:27;;;;;;;6.75;4.40;;;;;;;-149.78;100.00;50332.59;5123396;27;20039;-72
2022/06/01 05:34:53;;;;;;;6.80;4.30;;;;;;;-149.78;100.00;50303.25;5107554;28;20031;-72
2022/06/01 05:37:19;;;;;;;8.45;4.43;;;;;;;-149.78;100.00;50303.25;5095967;28;20036;-72
2022/06/01 05:39:45;;;;;;;8.43;4.40;;;;;;;-149.78;100.00;50313.03;5095590;28;20028;-72
2022/06/01 05:42:11;;;;;;;9.43;4.88;;;;;;;-149.78;100.00;50287.59;5112493;28;20042;-71
2022/06/01 05:44:40;;;;;;;6.63;4.53;;;;;;;-149.78;100.00;50287.59;5114328;28;20118;-72
2022/06/01 05:47:25;;;;;;;9.20;4.82;;;;;;;-149.78;100.00;50279.78;5098162;28;20118;-72
2022/06/01 05:49:51;;;;;;;11.30;4.65;;;;;;;-149.78;100.00;50264.13;5123570;28;20141;-72
2022/06/01 05:52:18;;;;;;;6.10;4.10;;;;;;;-149.78;100.00;50295.44;5124062;28;20122;-72
2022/06/01 05:54:52;;;;;;;6.95;4.70;;;;;;;-149.78;100.00;50303.25;5116862;28;20130;-72
2022/06/01 05:57:17;;;;;;;7.45;4.22;;;;;;;-149.78;100.00;50266.09;5121511;28;20122;-72
2022/06/01 06:00:10;;;;;;;8.30;4.35;;;;;;;-149.78;100.00;50283.69;5115914;27;20048;-74
2022/06/01 06:02:45;;;;;;;7.32;4.35;;;;;;;-149.78;100.00;50271.97;5097265;28;20070;-75
2022/06/01 06:08:11;;;;;;;5.85;3.88;;;;;;;-149.78;100.00;50266.09;5119086;28;20398;-72
2022/06/01 06:10:45;;;;;;;8.57;4.13;;;;;;;-149.78;100.00;50291.50;5118996;28;20053;-75
2022/06/01 06:13:11;;;;;;;7.50;3.45;;;;;;;-149.78;100.00;50260.22;5117129;28;20467;-72
2022/06/01 06:15:38;;;;;;;8.68;4.38;;;;;;;-149.78;100.00;50279.78;5120595;27;20118;-72
2022/06/01 06:18:06;;;;;;;6.72;4.00;;;;;;;-149.78;100.00;50293.47;5101361;27;20387;-71
2022/06/01 06:20:34;;;;;;;6.55;3.97;;;;;;;-149.78;100.00;50283.69;5085033;27;20040;-72
2022/06/01 06:22:59;;;;;;;6.25;3.90;;;;;;;-149.78;100.00;50242.63;5109199;27;20035;-72
2022/06/01 06:25:27;;;;;;;5.22;3.53;;;;;;;-149.78;100.00;50232.84;5118493;27;20119;-72
2022/06/01 06:28:14;;;;;;;5.20;3.20;;;;;;;-149.78;100.00;50268.03;5103299;27;20047;-72
2022/06/01 06:30:42;;;;;;;3.63;3.00;;;;;;;-149.78;100.00;50232.84;5116155;28;20028;-72
2022/06/01 06:33:28;;;;;;;4.95;3.38;;;;;;;-149.78;100.00;50240.66;5088790;28;20046;-72
2022/06/01 06:36:15;;;;;;;7.40;3.53;;;;;;;-149.78;100.00;50275.88;5124982;27;20395;-72
2022/06/01 06:38:44;;;;;;;4.32;3.15;;;;;;;-149.78;100.00;50275.88;5101952;28;20460;-72
2022/06/01 06:41:11;;;;;;;5.75;2.88;;;;;;;-149.78;100.00;50268.03;5122904;27;20063;-72
2022/06/01 06:44:02;;;;;;;3.72;2.97;;;;;;;-149.78;100.00;50213.28;5122878;27;20046;-72
2022/06/01 06:46:33;;;;;;;4.63;2.80;;;;;;;-149.78;100.00;50228.94;5090872;28;20048;-73
2022/06/01 06:49:00;;;;;;;5.05;2.55;;;;;;;-149.78;100.00;50244.59;5099592;27;20458;-76
2022/06/01 06:51:28;;;;;;;4.03;2.85;;;;;;;-149.78;100.00;50213.28;5081575;27;20394;-72
2022/06/01 06:53:54;;;;;;;5.82;3.03;;;;;;;-149.78;100.00;50246.53;5096756;28;20084;-72
2022/06/01 06:56:21;;;;;;;3.13;2.70;;;;;;;-149.78;100.00;50232.84;5067511;27;20035;-72
2022/06/01 06:58:48;;;;;;;3.92;2.97;;;;;;;-149.78;100.00;50256.31;5101638;27;20135;-72
2022/06/01 07:01:14;;;;;;;5.25;3.00;;;;;;;-149.78;100.00;50232.84;5103572;27;20110;-72
2022/06/01 07:03:44;;;;;;;4.18;2.80;;;;;;;-149.78;100.00;50264.13;5115095;27;20034;-72
2022/06/01 07:06:13;;;;;;;6.25;3.05;;;;;;;-149.78;100.00;50277.81;5119153;27;20028;-72
2022/06/01 07:08:47;;;;;;;3.83;2.83;;;;;;;-149.78;100.00;50217.19;5099849;27;20023;-72
2022/06/01 07:11:15;;;;;;;7.53;3.10;;;;;;;-149.78;100.00;50244.59;5121116;27;20028;-72
2022/06/01 07:13:42;;;;;;;4.15;2.50;;;;;;;-149.78;100.00;50199.59;5121235;27;20479;-72
2022/06/01 07:16:12;;;;;;;3.75;2.72;;;;;;;-149.78;100.00;50205.47;5101496;27;20487;-73
2022/06/01 07:18:40;;;;;;;10.30;2.45;;;;;;;-149.78;100.00;50252.41;5122831;27;20032;-72
2022/06/01 07:21:06;;;;;;;6.05;3.05;;;;;;;-149.78;100.00;50260.22;5121485;27;20028;-71
2022/06/01 07:23:34;;;;;;;3.40;2.60;;;;;;;-149.78;100.00;50225.03;5098298;27;20038;-71
2022/06/01 07:26:07;;;;;;;5.47;2.50;;;;;;;-149.78;100.00;50264.13;5120577;27;20511;-72
2022/06/01 07:28:35;;;;;;;3.00;2.30;;;;;;;-149.78;100.00;50228.94;5114937;27;20051;-72
2022/06/01 07:31:04;;;;;;;4.53;2.40;;;;;;;-149.78;100.00;50244.59;5124583;27;20493;-72
2022/06/01 07:33:30;;;;;;;2.70;2.20;;;;;;;-149.78;100.00;50240.66;5120968;27;20059;-73
2022/06/01 07:35:58;;;;;;;2.67;2.03;;;;;;;-149.78;100.00;50189.81;5125154;27;20027;-72
2022/06/01 07:43:57;;;;;;;4.13;2.35;;;;;;;-149.78;100.00;50260.22;5119850;27;20031;-72
2022/06/01 07:46:23;;;;;;;2.90;2.40;;;;;;;-149.78;100.00;50264.13;5104372;27;20059;-71
2022/06/01 07:49:09;;;;;;;2.05;1.60;;;;;;;-149.78;100.00;50254.34;5119447;27;20043;-72
2022/06/01 07:51:39;;;;;;;4.60;2.25;;;;;;;-149.78;100.00;50217.19;5119599;27;20031;-72
2022/06/01 07:54:06;;;;;;;3.70;2.17;;;;;;;-149.78;100.00;50228.94;5122993;27;20104;-72
2022/06/01 07:56:33;;;;;;;3.42;2.20;;;;;;;-149.78;100.00;50240.66;5121725;27;20028;-72
2022/06/01 07:59:00;;;;;;;5.28;2.17;;;;;;;-149.78;100.00;50228.94;5106895;27;20028;-72
2022/06/01 08:01:26;;;;;;;4.30;2.70;;;;;;;-149.78;100.00;50236.75;5071407;27;20027;-72
2022/06/01 08:03:57;;;;;;;4.65;2.72;;;;;;;-149.78;100.00;50226.97;5115316;27;20046;-72
2022/06/01 08:06:27;;;;;;;4.05;2.70;;;;;;;-149.78;100.00;50248.50;5090787;27;20042;-72
2022/06/01 08:08:54;;;;;;;3.72;2.30;;;;;;;-149.78;100.00;50248.50;5119693;27;20031;-72
2022/06/01 08:13:06;;;;;;;2.90;2.50;;;;;;;-149.78;100.00;50252.41;5115711;27;20032;-72
2022/06/01 08:14:27;;;;;;;2.53;2.20;;;;;;;-149.78;100.00;50213.28;5116918;27;20046;-71
2022/06/01 08:16:53;;;;;;;5.35;2.92;;;;;;;-149.78;100.00;50225.03;5096114;27;20040;-71
2022/06/01 08:19:24;;;;;;;4.82;2.40;;;;;;;-149.78;100.00;50217.19;5095790;27;20062;-71
2022/06/01 08:22:12;;;;;;;4.07;2.40;;;;;;;-149.78;100.00;50225.03;5117642;27;20388;-71
2022/06/01 08:24:38;;;;;;;3.85;2.10;;;;;;;-149.78;100.00;50225.03;5122310;27;20563;-71
2022/06/01 08:27:16;;;;;;;4.22;2.03;;;;;;;-149.78;100.00;50262.19;5101598;27;20073;-72
2022/06/01 08:29:47;;;;;;;3.78;2.22;;;;;;;-149.78;100.00;50219.16;5115678;27;20078;-72
2022/06/01 08:32:13;;;;;;;3.25;2.20;;;;;;;-149.78;100.00;50236.75;5117084;27;20118;-72
2022/06/01 08:34:40;;;;;;;3.85;2.10;;;;;;;-149.78;100.00;50232.84;5118073;27;20526;-72
2022/06/01 08:37:07;;;;;;;2.60;2.05;;;;;;;-149.78;100.00;50213.28;5117249;27;20031;-72
2022/06/01 08:39:34;;;;;;;2.00;1.70;;;;;;;-149.78;100.00;50197.66;5115123;27;20028;-72
2022/06/01 08:42:27;;;;;;;3.00;1.90;;;;;;;-149.78;100.00;50230.88;5119761;27;20043;-72
2022/06/01 08:45:04;;;;;;;4.25;2.00;;;;;;;-149.78;100.00;50197.66;5113819;27;20039;-71
2022/06/01 08:47:49;;;;;;;2.03;1.50;;;;;;;-149.78;100.00;50213.28;5118032;27;20382;-72
2022/06/01 08:50:25;;;;;;;1.70;1.60;;;;;;;-149.78;100.00;50182.00;5122081;27;20175;-72
2022/06/01 08:52:53;;;;;;;2.72;1.70;;;;;;;-149.78;100.00;50154.63;5118376;27;20047;-72
2022/06/01 08:55:48;;;;;;;1.85;1.75;;;;;;;-149.78;100.00;50205.47;5100434;28;20536;-72
2022/06/01 08:58:18;;;;;;;3.88;1.85;;;;;;;-149.78;100.00;50162.44;5101162;27;20035;-72
2022/06/01 09:00:58;;;;;;;;;;;;;;;-149.78;100.00;50170.25;5114744;27;20042;-72
2022/06/01 09:03:37;;;;;;;5.35;1.90;;;;;;;-149.78;100.00;50162.44;5098897;27;19922;-72
2022/06/01 09:06:13;;;;;;;2.30;2.00;;;;;;;-149.78;100.00;50183.97;5116628;27;20034;-72
2022/06/01 09:08:54;;;;;;;2.58;1.85;;;;;;;-149.78;100.00;50225.03;5099106;28;20035;-73
2022/06/01 09:11:40;;;;;;;4.30;1.70;;;;;;;-149.78;100.00;50209.38;5111734;27;20028;-73
2022/06/01 09:14:19;;;;;;;2.15;1.90;;;;;;;-149.78;100.00;50142.88;5100012;27;20047;-72
2022/06/01 09:16:49;;;;;;;2.45;1.98;;;;;;;-149.78;100.00;50146.81;5108515;27;20050;-72
2022/06/01 09:19:25;;;;;;;1.63;1.50;;;;;;;-149.78;100.00;50138.97;5098840;28;20027;-72
2022/06/01 09:24:56;;;;;;;6.43;1.95;;;;;;;-149.78;100.00;50170.25;5111510;27;20102;-71
2022/06/01 09:27:49;;;;;;;2.13;1.90;;;;;;;-149.78;100.00;50187.88;5094986;27;20533;-72
2022/06/01 09:30:39;;;;;;;4.05;2.25;;;;;;;-149.78;100.00;50197.66;5099766;28;20039;-72
2022/06/01 09:33:28;;;;;;;2.28;1.90;;;;;;;-149.78;100.00;50187.88;5116322;27;20059;-74
2022/06/01 09:36:08;;;;;;;2.53;2.28;;;;;;;-149.78;100.00;50248.50;5109804;27;20046;-73
2022/06/01 09:38:36;;;;;;;2.85;2.03;;;;;;;-149.78;100.00;50209.38;5113096;27;20031;-72
2022/06/01 09:41:10;;;;;;;3.33;2.15;;;;;;;-149.78;100.00;50205.47;5115619;27;20421;-73
2022/06/01 09:43:40;;;;;;;3.88;2.15;;;;;;;-149.78;100.00;50217.19;5100380;28;20027;-72
2022/06/01 09:46:07;;;;;;;3.17;2.30;;;;;;;-149.78;100.00;50238.72;5112137;28;20039;-74
2022/06/01 09:48:44;;;;;;;4.05;2.65;;;;;;;-149.78;100.00;50232.84;5112779;27;20158;-73
2022/06/01 09:51:21;;;;;;;4.30;2.80;;;;;;;-149.78;100.00;50248.50;5119970;27;20031;-71
2022/06/01 09:54:25;;;;;;;5.18;2.92;;;;;;;-149.78;100.00;50260.22;5137777;27;20482;-71
2022/06/01 09:56:52;;;;;;;4.57;2.70;;;;;;;-149.78;100.00;50244.59;5094796;27;20091;-71
2022/06/01 10:08:05;;;;;;;6.82;3.25;;;;;;;-149.78;100.00;50232.84;5097590;27;20049;-69
2022/06/01 10:10:31;;;;;;;5.13;2.95;;;;;;;-149.78;100.00;50254.34;5118829;27;20034;-68
2022/06/01 10:12:59;;;;;;;6.28;3.90;;;;;;;-149.78;100.00;50244.59;5098502;28;20211;-70
2022/06/01 10:15:51;;;;;;;6.40;3.80;;;;;;;-149.78;100.00;50182.00;5119753;27;20026;-68
2022/06/01 10:18:23;;;;;;;5.88;3.60;;;;;;;-149.78;100.00;50221.13;5125467;27;20035;-68
2022/06/01 10:21:01;;;;;;;4.80;3.10;;;;;;;-149.78;100.00;50174.19;5111372;27;20027;-68
2022/06/01 10:23:55;;;;;;;4.43;3.10;;;;;;;-149.78;100.00;50211.34;5124005;27;20027;-68
2022/06/01 10:26:29;;;;;;;5.28;2.90;;;;;;;-149.78;100.00;50174.19;5100838;27;20043;-69
2022/06/01 10:29:03;;;;;;;3.78;2.90;;;;;;;-149.78;100.00;50166.34;5101726;27;20114;-68
2022/06/01 10:31:44;;;;;;;4.13;3.28;;;;;;;-149.78;100.00;50127.25;5120993;27;20068;-66
2022/06/01 10:34:21;;;;;;;3.97;2.80;;;;;;;-149.78;100.00;50111.59;5124348;27;20553;-68
2022/06/01 10:37:03;;;;;;;7.40;3.10;;;;;;;-149.78;100.00;50119.41;5101515;27;20122;-70
2022/06/01 10:39:38;;;;;;;3.90;2.83;;;;;;;-149.78;100.00;50111.59;5117414;27;20051;-71
2022/06/01 10:42:10;;;;;;;3.10;2.45;;;;;;;-149.78;100.00;50138.97;5125531;27;20041;-71
2022/06/01 10:44:51;;;;;;;3.95;2.67;;;;;;;-149.78;100.00;50150.72;5103819;27;20050;-71
2022/06/01 10:47:49;;;;;;;3.38;2.50;;;;;;;-149.78;100.00;50150.72;5118877;27;20080;-71
2022/06/01 10:50:38;;;;;;;3.88;2.60;;;;;;;-149.78;100.00;50174.19;5122878;27;20054;-70
2022/06/01 10:53:19;;;;;;;4.35;2.60;;;;;;;-149.78;100.00;50166.34;5124575;27;20037;-69
2022/06/01 10:55:48;;;;;;;4.32;3.00;;;;;;;-149.78;100.00;50170.25;5120814;27;20047;-70
2022/06/01 10:58:34;;;;;;;4.80;2.50;;;;;;;-149.78;100.00;50135.06;5096236;27;20051;-70
2022/06/01 11:01:03;;;;;;;4.00;2.50;;;;;;;-149.78;100.00;50142.88;5121201;27;20035;-70
2022/06/01 11:04:19;;;;;;;3.85;2.65;;;;;;;-149.78;100.00;50158.53;5113022;27;20178;-70
2022/06/01 11:06:53;;;;;;;5.18;3.00;;;;;;;-149.78;100.00;50158.53;5117595;27;20072;-70
2022/06/01 11:10:00;;;;;;;3.63;2.60;;;;;;;-149.78;100.00;50138.97;5125699;27;20096;-71
2022/06/01 11:12:52;;;;;;;3.95;3.00;;;;;;;-149.78;100.00;50150.72;5126127;27;20035;-70
2022/06/01 11:15:41;;;;;;;3.95;2.83;;;;;;;-149.78;100.00;50154.63;5130818;27;20378;-70
2022/06/01 11:18:16;;;;;;;4.40;2.38;;;;;;;-149.78;100.00;50123.34;5114962;28;20038;-70
2022/06/01 11:21:03;;;;;;;4.57;2.92;;;;;;;-149.78;100.00;50135.06;5126164;27;20043;-71
2022/06/01 11:23:42;;;;;;;3.03;2.70;;;;;;;-149.78;100.00;50166.34;5121853;27;20482;-70
2022/06/01 11:26:26;;;;;;;5.00;2.58;;;;;;;-149.78;100.00;50170.25;5120236;27;20092;-71
2022/06/01 11:29:39;;;;;;;3.33;2.35;;;;;;;-149.78;100.00;50146.81;5124622;27;20034;-71
2022/06/01 11:32:17;;;;;;;4.53;2.30;;;;;;;-149.78;100.00;50138.97;5101531;27;20035;-70
2022/06/01 11:35:00;;;;;;;3.70;2.45;;;;;;;-149.78;100.00;50182.00;5101180;27;20034;-70
2022/06/01 11:37:49;;;;;;;3.53;2.20;;;;;;;-149.78;100.00;50172.22;5120447;27;20076;-71
2022/06/01 11:40:21;;;;;;;4.28;2.35;;;;;;;-149.78;100.00;50172.22;5079795;28;20484;-71
2022/06/01 11:42:56;;;;;;;3.42;2.53;;;;;;;-149.78;100.00;50209.38;5119569;27;20028;-70
2022/06/01 11:45:33;;;;;;;3.40;2.40;;;;;;;-149.78;100.00;50162.44;5095525;28;20046;-69
2022/06/01 11:48:08;;;;;;;4.40;2.47;;;;;;;-149.78;100.00;50146.81;5109572;28;20037;-71
2022/06/01 11:51:12;;;;;;;3.70;2.60;;;;;;;-149.78;100.00;50197.66;5116979;27;20475;-70
2022/06/01 11:53:59;;;;;;;3.83;2.58;;;;;;;-149.78;100.00;50205.47;5112783;27;20023;-71
2022/06/01 11:56:33;;;;;;;3.65;2.70;;;;;;;-149.78;100.00;50187.88;5107022;27;20019;-71
2022/06/01 11:59:20;;;;;;;4.20;2.90;;;;;;;-149.78;100.00;50162.44;5111694;28;20092;-69
2022/06/01 12:01:59;;;;;;;6.80;3.35;;;;;;;-149.78;100.00;50176.13;5128684;27;20031;-69
2022/06/01 12:04:28;;;;;;;4.18;3.10;;;;;;;-149.78;100.00;50178.09;5124682;27;20352;-70
2022/06/01 12:07:11;;;;;;;6.35;3.28;;;;;;;-149.78;100.00;50213.28;5114297;28;20041;-70
2022/06/01 12:09:40;;;;;;;4.72;2.70;;;;;;;-149.78;100.00;50170.25;5116646;27;20106;-71
2022/06/01 12:12:22;;;;;;;4.22;2.85;;;;;;;-149.78;100.00;50164.41;5120305;27;20269;-71
2022/06/01 12:14:57;;;;;;;5.35;3.22;;;;;;;-149.78;100.00;50162.44;5101718;27;20035;-72
2022/06/01 12:18:13;;;;;;;4.60;3.05;;;;;;;-149.78;100.00;50135.06;5119017;27;20035;-71
2022/06/01 12:20:47;;;;;;;2.60;2.40;;;;;;;-149.78;100.00;50133.09;5115674;27;20161;-73
2022/06/01 12:29:07;;;;;;;3.42;2.15;;;;;;;-149.78;100.00;50115.50;5116935;27;20131;-73
2022/06/01 12:31:57;;;;;;;3.58;2.22;;;;;;;-149.78;100.00;50138.97;5119187;27;20054;-74